sensor_id;sensor_type;location;lat;lon;timestamp;P1;durP1;ratioP1;P2;durP2;ratioP2
23129;SDS011;11734;51.046;13.778;2022-08-01T00:00:19;3.20;;;2.90;;
23129;SDS011;11734;51.046;13.778;2022-08-01T00:02:46;3.53;;;2.80;;
23129;SDS011;11734;51.046;13.778;2022-08-01T00:05:14;3.40;;;3.10;;
23129;SDS011;11734;51.046;13.778;2022-08-01T00:07:41;3.27;;;3.07;;
23129;SDS011;11734;51.046;13.778;2022-08-01T00:10:09;3.67;;;2.97;;
23129;SDS011;11734;51.046;13.778;2022-08-01T00:12:37;3.27;;;3.03;;
23129;SDS011;11734;51.046;13.778;2022-08-01T00:15:05;3.17;;;2.87;;
23129;SDS011;11734;51.046;13.778;2022-08-01T00:17:33;3.70;;;2.90;;
23129;SDS011;11734;51.046;13.778;2022-08-01T00:20:00;4.27;;;3.13;;
23129;SDS011;11734;51.046;13.778;2022-08-01T00:22:32;4.13;;;3.13;;
23129;SDS011;11734;51.046;13.778;2022-08-01T00:25:01;3.90;;;3.13;;
23129;SDS011;11734;51.046;13.778;2022-08-01T00:27:28;4.63;;;3.17;;
23129;SDS011;11734;51.046;13.778;2022-08-01T00:29:56;3.33;;;3.10;;
23129;SDS011;11734;51.046;13.778;2022-08-01T00:32:39;4.43;;;3.30;;
23129;SDS011;11734;51.046;13.778;2022-08-01T00:35:06;3.60;;;3.00;;
23129;SDS011;11734;51.046;13.778;2022-08-01T00:37:34;3.70;;;3.40;;
23129;SDS011;11734;51.046;13.778;2022-08-01T00:40:01;3.67;;;3.13;;
23129;SDS011;11734;51.046;13.778;2022-08-01T00:42:28;3.10;;;2.90;;
23129;SDS011;11734;51.046;13.778;2022-08-01T00:44:56;3.53;;;3.23;;
23129;SDS011;11734;51.046;13.778;2022-08-01T00:47:23;3.27;;;2.97;;
23129;SDS011;11734;51.046;13.778;2022-08-01T00:49:51;3.30;;;3.00;;
23129;SDS011;11734;51.046;13.778;2022-08-01T00:52:19;4.00;;;3.00;;
23129;SDS011;11734;51.046;13.778;2022-08-01T00:54:47;3.60;;;3.30;;
23129;SDS011;11734;51.046;13.778;2022-08-01T00:57:14;3.60;;;3.30;;
23129;SDS011;11734;51.046;13.778;2022-08-01T01:00:03;3.63;;;3.33;;
23129;SDS011;11734;51.046;13.778;2022-08-01T01:02:31;3.87;;;3.47;;
23129;SDS011;11734;51.046;13.778;2022-08-01T01:04:58;3.50;;;3.20;;
23129;SDS011;11734;51.046;13.778;2022-08-01T01:07:30;3.93;;;3.20;;
23129;SDS011;11734;51.046;13.778;2022-08-01T01:12:32;3.43;;;3.20;;
23129;SDS011;11734;51.046;13.778;2022-08-01T01:17:36;3.17;;;2.87;;
23129;SDS011;11734;51.046;13.778;2022-08-01T01:20:17;3.50;;;3.20;;
23129;SDS011;11734;51.046;13.778;2022-08-01T01:30:22;3.53;;;3.23;;
23129;SDS011;11734;51.046;13.778;2022-08-01T01:32:51;3.93;;;3.30;;
23129;SDS011;11734;51.046;13.778;2022-08-01T01:35:29;3.60;;;3.30;;
23129;SDS011;11734;51.046;13.778;2022-08-01T01:38:00;3.70;;;3.40;;
23129;SDS011;11734;51.046;13.778;2022-08-01T01:40:28;4.03;;;3.60;;
23129;SDS011;11734;51.046;13.778;2022-08-01T01:42:56;4.40;;;3.57;;
23129;SDS011;11734;51.046;13.778;2022-08-01T01:45:24;6.00;;;3.50;;
23129;SDS011;11734;51.046;13.778;2022-08-01T01:47:52;3.60;;;3.30;;
23129;SDS011;11734;51.046;13.778;2022-08-01T01:50:21;3.77;;;3.47;;
23129;SDS011;11734;51.046;13.778;2022-08-01T01:52:49;4.10;;;3.50;;
23129;SDS011;11734;51.046;13.778;2022-08-01T01:55:18;3.73;;;3.43;;
23129;SDS011;11734;51.046;13.778;2022-08-01T01:57:47;3.87;;;3.57;;
23129;SDS011;11734;51.046;13.778;2022-08-01T02:00:16;5.33;;;4.10;;
23129;SDS011;11734;51.046;13.778;2022-08-01T02:02:43;3.97;;;3.57;;
23129;SDS011;11734;51.046;13.778;2022-08-01T02:05:11;4.10;;;3.70;;
23129;SDS011;11734;51.046;13.778;2022-08-01T02:07:39;3.80;;;3.50;;
23129;SDS011;11734;51.046;13.778;2022-08-01T02:10:10;4.00;;;3.53;;
23129;SDS011;11734;51.046;13.778;2022-08-01T02:12:38;3.90;;;3.60;;
23129;SDS011;11734;51.046;13.778;2022-08-01T02:15:07;3.97;;;3.57;;
23129;SDS011;11734;51.046;13.778;2022-08-01T02:17:37;4.60;;;3.77;;
23129;SDS011;11734;51.046;13.778;2022-08-01T02:20:07;4.40;;;3.50;;
23129;SDS011;11734;51.046;13.778;2022-08-01T02:22:38;4.47;;;4.10;;
23129;SDS011;11734;51.046;13.778;2022-08-01T02:27:37;4.23;;;3.90;;
23129;SDS011;11734;51.046;13.778;2022-08-01T02:30:07;5.97;;;3.77;;
23129;SDS011;11734;51.046;13.778;2022-08-01T02:32:36;4.43;;;4.03;;
23129;SDS011;11734;51.046;13.778;2022-08-01T02:35:07;3.97;;;3.67;;
23129;SDS011;11734;51.046;13.778;2022-08-01T02:37:36;5.70;;;4.50;;
23129;SDS011;11734;51.046;13.778;2022-08-01T02:40:10;4.27;;;3.97;;
23129;SDS011;11734;51.046;13.778;2022-08-01T02:42:40;4.23;;;3.87;;
23129;SDS011;11734;51.046;13.778;2022-08-01T02:45:09;4.20;;;3.90;;
23129;SDS011;11734;51.046;13.778;2022-08-01T02:47:38;3.87;;;3.57;;
23129;SDS011;11734;51.046;13.778;2022-08-01T02:50:07;4.20;;;3.70;;
23129;SDS011;11734;51.046;13.778;2022-08-01T02:52:35;4.80;;;3.87;;
23129;SDS011;11734;51.046;13.778;2022-08-01T02:55:03;5.23;;;3.90;;
23129;SDS011;11734;51.046;13.778;2022-08-01T02:57:30;4.37;;;3.97;;
23129;SDS011;11734;51.046;13.778;2022-08-01T03:00:17;4.50;;;4.10;;
23129;SDS011;11734;51.046;13.778;2022-08-01T03:02:48;4.50;;;3.93;;
23129;SDS011;11734;51.046;13.778;2022-08-01T03:05:17;4.60;;;3.60;;
23129;SDS011;11734;51.046;13.778;2022-08-01T03:07:45;4.40;;;3.67;;
23129;SDS011;11734;51.046;13.778;2022-08-01T03:10:14;4.20;;;3.90;;
23129;SDS011;11734;51.046;13.778;2022-08-01T03:12:42;4.27;;;3.87;;
23129;SDS011;11734;51.046;13.778;2022-08-01T03:15:13;4.43;;;3.67;;
23129;SDS011;11734;51.046;13.778;2022-08-01T03:17:42;5.10;;;4.23;;
23129;SDS011;11734;51.046;13.778;2022-08-01T03:20:11;3.77;;;3.47;;
23129;SDS011;11734;51.046;13.778;2022-08-01T03:22:39;3.60;;;3.30;;
23129;SDS011;11734;51.046;13.778;2022-08-01T03:25:07;4.80;;;3.80;;
23129;SDS011;11734;51.046;13.778;2022-08-01T03:27:35;4.40;;;3.37;;
23129;SDS011;11734;51.046;13.778;2022-08-01T03:30:04;4.30;;;3.97;;
23129;SDS011;11734;51.046;13.778;2022-08-01T03:32:32;4.20;;;3.67;;
23129;SDS011;11734;51.046;13.778;2022-08-01T03:34:59;4.33;;;3.83;;
23129;SDS011;11734;51.046;13.778;2022-08-01T03:37:28;4.37;;;3.97;;
23129;SDS011;11734;51.046;13.778;2022-08-01T03:40:08;4.47;;;4.00;;
23129;SDS011;11734;51.046;13.778;2022-08-01T03:43:11;4.33;;;3.93;;
23129;SDS011;11734;51.046;13.778;2022-08-01T03:45:30;3.97;;;3.57;;
23129;SDS011;11734;51.046;13.778;2022-08-01T03:48:01;4.77;;;4.07;;
23129;SDS011;11734;51.046;13.778;2022-08-01T03:50:29;5.13;;;3.93;;
23129;SDS011;11734;51.046;13.778;2022-08-01T03:53:00;4.93;;;3.50;;
23129;SDS011;11734;51.046;13.778;2022-08-01T03:55:28;21.53;;;18.17;;
23129;SDS011;11734;51.046;13.778;2022-08-01T03:57:57;6.93;;;6.33;;
23129;SDS011;11734;51.046;13.778;2022-08-01T04:00:26;4.57;;;4.03;;
23129;SDS011;11734;51.046;13.778;2022-08-01T04:02:53;5.40;;;3.60;;
23129;SDS011;11734;51.046;13.778;2022-08-01T04:05:21;4.00;;;3.70;;
23129;SDS011;11734;51.046;13.778;2022-08-01T04:07:48;4.17;;;3.87;;
23129;SDS011;11734;51.046;13.778;2022-08-01T04:10:22;4.20;;;3.80;;
23129;SDS011;11734;51.046;13.778;2022-08-01T04:12:49;4.50;;;4.10;;
23129;SDS011;11734;51.046;13.778;2022-08-01T04:15:17;3.70;;;3.50;;
23129;SDS011;11734;51.046;13.778;2022-08-01T04:17:46;3.93;;;3.63;;
23129;SDS011;11734;51.046;13.778;2022-08-01T04:20:14;4.17;;;3.80;;
23129;SDS011;11734;51.046;13.778;2022-08-01T04:22:41;3.80;;;3.50;;
23129;SDS011;11734;51.046;13.778;2022-08-01T04:25:11;4.27;;;3.87;;
23129;SDS011;11734;51.046;13.778;2022-08-01T04:27:40;4.03;;;3.53;;
23129;SDS011;11734;51.046;13.778;2022-08-01T04:30:17;4.00;;;3.60;;
23129;SDS011;11734;51.046;13.778;2022-08-01T04:32:46;4.50;;;4.10;;
23129;SDS011;11734;51.046;13.778;2022-08-01T04:35:14;4.43;;;3.33;;
23129;SDS011;11734;51.046;13.778;2022-08-01T04:38:02;4.00;;;3.60;;
23129;SDS011;11734;51.046;13.778;2022-08-01T04:40:31;4.40;;;4.00;;
23129;SDS011;11734;51.046;13.778;2022-08-01T04:42:59;4.90;;;4.17;;
23129;SDS011;11734;51.046;13.778;2022-08-01T04:45:27;5.53;;;3.87;;
23129;SDS011;11734;51.046;13.778;2022-08-01T04:47:54;4.60;;;4.20;;
23129;SDS011;11734;51.046;13.778;2022-08-01T04:50:23;3.83;;;3.53;;
23129;SDS011;11734;51.046;13.778;2022-08-01T04:52:51;3.70;;;3.40;;
23129;SDS011;11734;51.046;13.778;2022-08-01T04:55:18;4.37;;;4.07;;
23129;SDS011;11734;51.046;13.778;2022-08-01T04:57:47;3.97;;;3.67;;
23129;SDS011;11734;51.046;13.778;2022-08-01T05:00:15;4.43;;;3.93;;
23129;SDS011;11734;51.046;13.778;2022-08-01T05:02:45;4.47;;;4.03;;
23129;SDS011;11734;51.046;13.778;2022-08-01T05:05:13;4.63;;;4.23;;
23129;SDS011;11734;51.046;13.778;2022-08-01T05:07:41;5.07;;;4.43;;
23129;SDS011;11734;51.046;13.778;2022-08-01T05:10:11;4.17;;;3.80;;
23129;SDS011;11734;51.046;13.778;2022-08-01T05:12:38;4.40;;;4.00;;
23129;SDS011;11734;51.046;13.778;2022-08-01T05:15:05;4.60;;;4.20;;
23129;SDS011;11734;51.046;13.778;2022-08-01T05:17:40;6.10;;;4.03;;
23129;SDS011;11734;51.046;13.778;2022-08-01T05:20:11;4.03;;;3.73;;
23129;SDS011;11734;51.046;13.778;2022-08-01T05:22:38;5.03;;;4.57;;
23129;SDS011;11734;51.046;13.778;2022-08-01T05:25:06;4.80;;;4.40;;
23129;SDS011;11734;51.046;13.778;2022-08-01T05:27:34;4.90;;;4.40;;
23129;SDS011;11734;51.046;13.778;2022-08-01T05:30:06;5.63;;;4.30;;
23129;SDS011;11734;51.046;13.778;2022-08-01T05:32:34;4.47;;;3.90;;
23129;SDS011;11734;51.046;13.778;2022-08-01T05:35:02;4.83;;;4.43;;
23129;SDS011;11734;51.046;13.778;2022-08-01T05:37:29;4.30;;;4.00;;
23129;SDS011;11734;51.046;13.778;2022-08-01T05:39:56;4.17;;;3.77;;
23129;SDS011;11734;51.046;13.778;2022-08-01T05:42:24;4.00;;;3.70;;
23129;SDS011;11734;51.046;13.778;2022-08-01T05:44:51;5.57;;;4.03;;
23129;SDS011;11734;51.046;13.778;2022-08-01T05:47:18;4.50;;;4.10;;
23129;SDS011;11734;51.046;13.778;2022-08-01T05:49:46;3.57;;;3.37;;
23129;SDS011;11734;51.046;13.778;2022-08-01T05:52:13;3.70;;;3.40;;
23129;SDS011;11734;51.046;13.778;2022-08-01T05:54:40;3.83;;;3.47;;
23129;SDS011;11734;51.046;13.778;2022-08-01T05:57:08;4.00;;;3.70;;
23129;SDS011;11734;51.046;13.778;2022-08-01T05:59:36;3.60;;;3.23;;
23129;SDS011;11734;51.046;13.778;2022-08-01T06:02:03;6.03;;;4.00;;
23129;SDS011;11734;51.046;13.778;2022-08-01T06:04:31;4.40;;;4.00;;
23129;SDS011;11734;51.046;13.778;2022-08-01T06:06:59;3.60;;;3.30;;
23129;SDS011;11734;51.046;13.778;2022-08-01T06:09:26;6.33;;;3.40;;
23129;SDS011;11734;51.046;13.778;2022-08-01T06:11:53;4.53;;;3.43;;
23129;SDS011;11734;51.046;13.778;2022-08-01T06:14:21;3.83;;;3.20;;
23129;SDS011;11734;51.046;13.778;2022-08-01T06:16:48;4.90;;;3.43;;
23129;SDS011;11734;51.046;13.778;2022-08-01T06:19:15;3.87;;;3.57;;
23129;SDS011;11734;51.046;13.778;2022-08-01T06:21:43;4.03;;;3.17;;
23129;SDS011;11734;51.046;13.778;2022-08-01T06:24:10;4.67;;;3.10;;
23129;SDS011;11734;51.046;13.778;2022-08-01T06:26:37;3.83;;;3.27;;
23129;SDS011;11734;51.046;13.778;2022-08-01T06:29:06;3.90;;;3.30;;
23129;SDS011;11734;51.046;13.778;2022-08-01T06:31:35;3.47;;;3.17;;
23129;SDS011;11734;51.046;13.778;2022-08-01T06:34:02;3.67;;;3.37;;
23129;SDS011;11734;51.046;13.778;2022-08-01T06:36:30;3.53;;;3.23;;
23129;SDS011;11734;51.046;13.778;2022-08-01T06:38:57;3.60;;;3.30;;
23129;SDS011;11734;51.046;13.778;2022-08-01T06:41:24;3.63;;;3.33;;
23129;SDS011;11734;51.046;13.778;2022-08-01T06:43:51;3.60;;;3.30;;
23129;SDS011;11734;51.046;13.778;2022-08-01T06:46:19;5.23;;;3.53;;
23129;SDS011;11734;51.046;13.778;2022-08-01T06:48:47;3.67;;;3.37;;
23129;SDS011;11734;51.046;13.778;2022-08-01T06:51:14;3.93;;;3.53;;
23129;SDS011;11734;51.046;13.778;2022-08-01T06:53:44;4.20;;;3.90;;
23129;SDS011;11734;51.046;13.778;2022-08-01T06:56:11;4.73;;;4.20;;
23129;SDS011;11734;51.046;13.778;2022-08-01T06:58:39;4.77;;;4.10;;
23129;SDS011;11734;51.046;13.778;2022-08-01T07:01:06;4.73;;;4.40;;
23129;SDS011;11734;51.046;13.778;2022-08-01T07:03:34;4.80;;;4.40;;
23129;SDS011;11734;51.046;13.778;2022-08-01T07:06:23;5.60;;;5.10;;
23129;SDS011;11734;51.046;13.778;2022-08-01T07:08:51;5.87;;;5.30;;
23129;SDS011;11734;51.046;13.778;2022-08-01T07:11:18;5.63;;;5.03;;
23129;SDS011;11734;51.046;13.778;2022-08-01T07:13:46;5.60;;;5.00;;
23129;SDS011;11734;51.046;13.778;2022-08-01T07:16:13;5.70;;;5.13;;
23129;SDS011;11734;51.046;13.778;2022-08-01T07:18:41;5.60;;;5.10;;
23129;SDS011;11734;51.046;13.778;2022-08-01T07:21:08;5.80;;;5.30;;
23129;SDS011;11734;51.046;13.778;2022-08-01T07:23:56;6.20;;;5.60;;
23129;SDS011;11734;51.046;13.778;2022-08-01T07:26:24;6.00;;;5.40;;
23129;SDS011;11734;51.046;13.778;2022-08-01T07:28:53;6.07;;;5.60;;
23129;SDS011;11734;51.046;13.778;2022-08-01T07:31:20;6.63;;;6.07;;
23129;SDS011;11734;51.046;13.778;2022-08-01T07:33:47;6.50;;;6.00;;
23129;SDS011;11734;51.046;13.778;2022-08-01T07:36:18;6.87;;;6.17;;
23129;SDS011;11734;51.046;13.778;2022-08-01T07:38:45;7.77;;;7.10;;
23129;SDS011;11734;51.046;13.778;2022-08-01T07:41:13;6.57;;;5.97;;
23129;SDS011;11734;51.046;13.778;2022-08-01T07:43:41;7.30;;;6.70;;
23129;SDS011;11734;51.046;13.778;2022-08-01T07:46:21;7.30;;;6.60;;
23129;SDS011;11734;51.046;13.778;2022-08-01T07:48:49;7.07;;;6.47;;
23129;SDS011;11734;51.046;13.778;2022-08-01T07:51:16;7.20;;;6.60;;
23129;SDS011;11734;51.046;13.778;2022-08-01T07:53:44;6.60;;;5.97;;
23129;SDS011;11734;51.046;13.778;2022-08-01T07:56:11;6.40;;;5.90;;
23129;SDS011;11734;51.046;13.778;2022-08-01T07:58:38;6.50;;;5.67;;
23129;SDS011;11734;51.046;13.778;2022-08-01T08:01:06;4.83;;;4.33;;
23129;SDS011;11734;51.046;13.778;2022-08-01T08:03:33;4.80;;;4.40;;
23129;SDS011;11734;51.046;13.778;2022-08-01T08:06:00;4.93;;;4.43;;
23129;SDS011;11734;51.046;13.778;2022-08-01T08:08:28;4.30;;;4.00;;
23129;SDS011;11734;51.046;13.778;2022-08-01T08:10:55;4.30;;;3.90;;
23129;SDS011;11734;51.046;13.778;2022-08-01T08:13:22;5.97;;;4.10;;
23129;SDS011;11734;51.046;13.778;2022-08-01T08:15:50;4.10;;;3.80;;
23129;SDS011;11734;51.046;13.778;2022-08-01T08:18:17;3.80;;;3.50;;
23129;SDS011;11734;51.046;13.778;2022-08-01T08:20:44;4.50;;;4.10;;
23129;SDS011;11734;51.046;13.778;2022-08-01T08:23:15;4.10;;;3.80;;
23129;SDS011;11734;51.046;13.778;2022-08-01T08:26:09;4.30;;;3.90;;
23129;SDS011;11734;51.046;13.778;2022-08-01T08:28:37;4.03;;;3.63;;
23129;SDS011;11734;51.046;13.778;2022-08-01T08:31:06;3.70;;;3.40;;
23129;SDS011;11734;51.046;13.778;2022-08-01T08:33:54;3.47;;;3.17;;
23129;SDS011;11734;51.046;13.778;2022-08-01T08:36:21;4.73;;;3.10;;
23129;SDS011;11734;51.046;13.778;2022-08-01T08:38:57;3.27;;;2.97;;
23129;SDS011;11734;51.046;13.778;2022-08-01T08:41:26;3.30;;;3.10;;
23129;SDS011;11734;51.046;13.778;2022-08-01T08:44:04;3.70;;;2.77;;
23129;SDS011;11734;51.046;13.778;2022-08-01T08:46:43;3.70;;;2.80;;
23129;SDS011;11734;51.046;13.778;2022-08-01T08:49:11;3.13;;;2.93;;
23129;SDS011;11734;51.046;13.778;2022-08-01T08:51:39;2.83;;;2.63;;
23129;SDS011;11734;51.046;13.778;2022-08-01T08:54:07;3.30;;;2.90;;
23129;SDS011;11734;51.046;13.778;2022-08-01T08:56:36;2.80;;;2.60;;
23129;SDS011;11734;51.046;13.778;2022-08-01T08:59:04;3.10;;;2.77;;
23129;SDS011;11734;51.046;13.778;2022-08-01T09:01:32;2.70;;;2.50;;
23129;SDS011;11734;51.046;13.778;2022-08-01T09:04:00;3.97;;;2.50;;
23129;SDS011;11734;51.046;13.778;2022-08-01T09:06:30;2.53;;;2.30;;
23129;SDS011;11734;51.046;13.778;2022-08-01T09:08:58;2.60;;;2.40;;
23129;SDS011;11734;51.046;13.778;2022-08-01T09:11:25;2.60;;;2.20;;
23129;SDS011;11734;51.046;13.778;2022-08-01T09:16:30;2.33;;;2.13;;
23129;SDS011;11734;51.046;13.778;2022-08-01T09:22:07;2.33;;;2.10;;
23129;SDS011;11734;51.046;13.778;2022-08-01T09:24:35;2.47;;;2.00;;
23129;SDS011;11734;51.046;13.778;2022-08-01T09:27:20;2.80;;;2.60;;
23129;SDS011;11734;51.046;13.778;2022-08-01T09:29:51;3.50;;;2.23;;
23129;SDS011;11734;51.046;13.778;2022-08-01T09:32:27;2.77;;;2.17;;
23129;SDS011;11734;51.046;13.778;2022-08-01T09:35:22;2.47;;;2.33;;
23129;SDS011;11734;51.046;13.778;2022-08-01T09:37:47;3.00;;;2.80;;
23129;SDS011;11734;51.046;13.778;2022-08-01T09:40:17;2.93;;;2.73;;
23129;SDS011;11734;51.046;13.778;2022-08-01T09:42:44;2.70;;;2.50;;
23129;SDS011;11734;51.046;13.778;2022-08-01T09:45:33;3.27;;;2.67;;
23129;SDS011;11734;51.046;13.778;2022-08-01T09:48:10;2.70;;;2.50;;
23129;SDS011;11734;51.046;13.778;2022-08-01T09:50:43;2.40;;;2.20;;
23129;SDS011;11734;51.046;13.778;2022-08-01T09:53:11;2.37;;;2.27;;
23129;SDS011;11734;51.046;13.778;2022-08-01T09:56:01;2.50;;;2.30;;
23129;SDS011;11734;51.046;13.778;2022-08-01T09:58:48;2.20;;;2.10;;
23129;SDS011;11734;51.046;13.778;2022-08-01T10:01:24;2.47;;;2.17;;
23129;SDS011;11734;51.046;13.778;2022-08-01T10:04:10;2.43;;;2.23;;
23129;SDS011;11734;51.046;13.778;2022-08-01T10:06:39;2.27;;;2.10;;
23129;SDS011;11734;51.046;13.778;2022-08-01T10:09:09;3.70;;;1.87;;
23129;SDS011;11734;51.046;13.778;2022-08-01T10:11:36;2.10;;;2.00;;
23129;SDS011;11734;51.046;13.778;2022-08-01T10:14:05;2.30;;;2.10;;
23129;SDS011;11734;51.046;13.778;2022-08-01T10:16:34;2.00;;;1.90;;
23129;SDS011;11734;51.046;13.778;2022-08-01T10:19:05;2.10;;;2.00;;
23129;SDS011;11734;51.046;13.778;2022-08-01T10:21:40;2.17;;;1.93;;
23129;SDS011;11734;51.046;13.778;2022-08-01T10:24:25;1.80;;;1.70;;
23129;SDS011;11734;51.046;13.778;2022-08-01T10:26:55;2.50;;;1.80;;
23129;SDS011;11734;51.046;13.778;2022-08-01T10:29:25;2.43;;;2.00;;
23129;SDS011;11734;51.046;13.778;2022-08-01T10:32:13;1.70;;;1.60;;
23129;SDS011;11734;51.046;13.778;2022-08-01T10:34:41;2.03;;;1.83;;
23129;SDS011;11734;51.046;13.778;2022-08-01T10:37:10;2.63;;;1.70;;
23129;SDS011;11734;51.046;13.778;2022-08-01T10:39:41;1.87;;;1.77;;
23129;SDS011;11734;51.046;13.778;2022-08-01T10:42:09;2.13;;;1.70;;
23129;SDS011;11734;51.046;13.778;2022-08-01T10:44:41;2.53;;;1.50;;
23129;SDS011;11734;51.046;13.778;2022-08-01T10:47:10;1.60;;;1.40;;
23129;SDS011;11734;51.046;13.778;2022-08-01T10:49:44;1.67;;;1.50;;
23129;SDS011;11734;51.046;13.778;2022-08-01T10:52:16;1.53;;;1.43;;
23129;SDS011;11734;51.046;13.778;2022-08-01T10:54:45;1.70;;;1.60;;
23129;SDS011;11734;51.046;13.778;2022-08-01T10:57:18;1.63;;;1.53;;
23129;SDS011;11734;51.046;13.778;2022-08-01T10:59:52;1.50;;;1.40;;
23129;SDS011;11734;51.046;13.778;2022-08-01T11:02:30;2.03;;;1.53;;
23129;SDS011;11734;51.046;13.778;2022-08-01T11:05:01;1.40;;;1.30;;
23129;SDS011;11734;51.046;13.778;2022-08-01T11:08:06;1.33;;;1.10;;
23129;SDS011;11734;51.046;13.778;2022-08-01T11:12:51;5.13;;;4.57;;
23129;SDS011;11734;51.046;13.778;2022-08-01T11:15:19;1.10;;;1.00;;
23129;SDS011;11734;51.046;13.778;2022-08-01T11:17:57;1.30;;;1.20;;
23129;SDS011;11734;51.046;13.778;2022-08-01T11:20:30;1.23;;;1.13;;
23129;SDS011;11734;51.046;13.778;2022-08-01T11:28:26;1.83;;;0.97;;
23129;SDS011;11734;51.046;13.778;2022-08-01T11:41:20;1.20;;;1.10;;
23129;SDS011;11734;51.046;13.778;2022-08-01T11:46:46;1.37;;;1.00;;
23129;SDS011;11734;51.046;13.778;2022-08-01T11:52:05;0.97;;;0.97;;
23129;SDS011;11734;51.046;13.778;2022-08-01T11:54:35;2.40;;;1.30;;
23129;SDS011;11734;51.046;13.778;2022-08-01T11:57:08;3.33;;;1.40;;
23129;SDS011;11734;51.046;13.778;2022-08-01T11:59:43;3.77;;;1.57;;
23129;SDS011;11734;51.046;13.778;2022-08-01T12:02:37;1.73;;;1.33;;
23129;SDS011;11734;51.046;13.778;2022-08-01T12:05:08;2.30;;;1.40;;
23129;SDS011;11734;51.046;13.778;2022-08-01T12:07:39;1.60;;;1.50;;
23129;SDS011;11734;51.046;13.778;2022-08-01T12:10:17;1.73;;;1.50;;
23129;SDS011;11734;51.046;13.778;2022-08-01T12:12:45;2.67;;;1.50;;
23129;SDS011;11734;51.046;13.778;2022-08-01T12:15:13;2.50;;;1.40;;
23129;SDS011;11734;51.046;13.778;2022-08-01T12:20:23;3.93;;;1.43;;
23129;SDS011;11734;51.046;13.778;2022-08-01T12:22:54;2.40;;;1.23;;
23129;SDS011;11734;51.046;13.778;2022-08-01T12:25:21;1.53;;;1.23;;
23129;SDS011;11734;51.046;13.778;2022-08-01T12:27:49;1.70;;;1.23;;
23129;SDS011;11734;51.046;13.778;2022-08-01T12:30:21;1.57;;;1.40;;
23129;SDS011;11734;51.046;13.778;2022-08-01T12:32:50;1.63;;;1.13;;
23129;SDS011;11734;51.046;13.778;2022-08-01T12:35:22;2.77;;;1.47;;
23129;SDS011;11734;51.046;13.778;2022-08-01T12:37:53;1.30;;;1.20;;
23129;SDS011;11734;51.046;13.778;2022-08-01T12:40:25;2.93;;;1.50;;
23129;SDS011;11734;51.046;13.778;2022-08-01T12:42:53;2.50;;;1.27;;
23129;SDS011;11734;51.046;13.778;2022-08-01T12:45:21;3.30;;;1.30;;
23129;SDS011;11734;51.046;13.778;2022-08-01T12:47:50;1.40;;;1.30;;
23129;SDS011;11734;51.046;13.778;2022-08-01T12:50:19;1.53;;;1.43;;
23129;SDS011;11734;51.046;13.778;2022-08-01T12:52:48;3.37;;;1.40;;
23129;SDS011;11734;51.046;13.778;2022-08-01T12:55:16;2.87;;;1.30;;
23129;SDS011;11734;51.046;13.778;2022-08-01T12:57:45;1.30;;;1.20;;
23129;SDS011;11734;51.046;13.778;2022-08-01T13:00:20;1.80;;;1.57;;
23129;SDS011;11734;51.046;13.778;2022-08-01T13:02:48;1.87;;;1.20;;
23129;SDS011;11734;51.046;13.778;2022-08-01T13:05:16;2.03;;;1.20;;
23129;SDS011;11734;51.046;13.778;2022-08-01T13:07:48;1.30;;;1.20;;
23129;SDS011;11734;51.046;13.778;2022-08-01T13:10:26;1.60;;;1.20;;
23129;SDS011;11734;51.046;13.778;2022-08-01T13:12:55;1.57;;;1.30;;
23129;SDS011;11734;51.046;13.778;2022-08-01T13:15:30;2.97;;;1.40;;
23129;SDS011;11734;51.046;13.778;2022-08-01T13:17:59;3.37;;;1.20;;
23129;SDS011;11734;51.046;13.778;2022-08-01T13:20:28;1.37;;;1.27;;
23129;SDS011;11734;51.046;13.778;2022-08-01T13:22:55;1.83;;;1.47;;
23129;SDS011;11734;51.046;13.778;2022-08-01T13:25:22;1.30;;;1.20;;
23129;SDS011;11734;51.046;13.778;2022-08-01T13:28:35;1.17;;;1.17;;
23129;SDS011;11734;51.046;13.778;2022-08-01T13:31:03;1.57;;;1.20;;
23129;SDS011;11734;51.046;13.778;2022-08-01T13:33:40;1.87;;;1.20;;
23129;SDS011;11734;51.046;13.778;2022-08-01T13:36:08;2.33;;;1.47;;
23129;SDS011;11734;51.046;13.778;2022-08-01T13:38:35;2.70;;;1.10;;
23129;SDS011;11734;51.046;13.778;2022-08-01T13:41:21;1.60;;;1.10;;
23129;SDS011;11734;51.046;13.778;2022-08-01T13:43:48;0.87;;;0.87;;
23129;SDS011;11734;51.046;13.778;2022-08-01T13:46:25;1.53;;;0.90;;
23129;SDS011;11734;51.046;13.778;2022-08-01T13:48:54;1.37;;;1.10;;
23129;SDS011;11734;51.046;13.778;2022-08-01T13:51:22;1.10;;;1.00;;
23129;SDS011;11734;51.046;13.778;2022-08-01T13:53:49;1.10;;;0.90;;
23129;SDS011;11734;51.046;13.778;2022-08-01T13:56:16;1.10;;;1.00;;
23129;SDS011;11734;51.046;13.778;2022-08-01T13:58:44;1.10;;;1.00;;
23129;SDS011;11734;51.046;13.778;2022-08-01T14:01:12;2.30;;;1.00;;
23129;SDS011;11734;51.046;13.778;2022-08-01T14:03:40;1.53;;;1.00;;
23129;SDS011;11734;51.046;13.778;2022-08-01T14:06:07;2.73;;;1.50;;
23129;SDS011;11734;51.046;13.778;2022-08-01T14:08:34;1.47;;;1.13;;
23129;SDS011;11734;51.046;13.778;2022-08-01T14:11:02;1.40;;;1.30;;
23129;SDS011;11734;51.046;13.778;2022-08-01T14:13:32;1.77;;;1.10;;
23129;SDS011;11734;51.046;13.778;2022-08-01T14:16:02;2.50;;;1.40;;
23129;SDS011;11734;51.046;13.778;2022-08-01T14:18:29;1.93;;;1.23;;
23129;SDS011;11734;51.046;13.778;2022-08-01T14:20:57;1.20;;;1.20;;
23129;SDS011;11734;51.046;13.778;2022-08-01T14:23:31;1.37;;;1.27;;
23129;SDS011;11734;51.046;13.778;2022-08-01T14:25:58;2.43;;;1.20;;
23129;SDS011;11734;51.046;13.778;2022-08-01T14:28:33;1.30;;;1.20;;
23129;SDS011;11734;51.046;13.778;2022-08-01T14:31:00;1.73;;;1.30;;
23129;SDS011;11734;51.046;13.778;2022-08-01T14:33:28;1.50;;;1.40;;
23129;SDS011;11734;51.046;13.778;2022-08-01T14:35:55;1.20;;;1.10;;
23129;SDS011;11734;51.046;13.778;2022-08-01T14:38:32;2.70;;;1.30;;
23129;SDS011;11734;51.046;13.778;2022-08-01T14:41:00;1.30;;;1.20;;
23129;SDS011;11734;51.046;13.778;2022-08-01T14:43:29;1.70;;;1.30;;
23129;SDS011;11734;51.046;13.778;2022-08-01T14:45:59;1.40;;;1.30;;
23129;SDS011;11734;51.046;13.778;2022-08-01T14:48:27;1.47;;;1.37;;
23129;SDS011;11734;51.046;13.778;2022-08-01T14:50:56;1.40;;;1.30;;
23129;SDS011;11734;51.046;13.778;2022-08-01T14:53:23;1.40;;;1.30;;
23129;SDS011;11734;51.046;13.778;2022-08-01T14:55:50;2.67;;;1.60;;
23129;SDS011;11734;51.046;13.778;2022-08-01T14:58:17;2.40;;;1.50;;
23129;SDS011;11734;51.046;13.778;2022-08-01T15:00:45;1.23;;;1.20;;
23129;SDS011;11734;51.046;13.778;2022-08-01T15:03:12;1.37;;;1.27;;
23129;SDS011;11734;51.046;13.778;2022-08-01T15:05:40;1.40;;;1.30;;
23129;SDS011;11734;51.046;13.778;2022-08-01T15:08:07;1.97;;;1.30;;
23129;SDS011;11734;51.046;13.778;2022-08-01T15:10:34;1.97;;;1.30;;
23129;SDS011;11734;51.046;13.778;2022-08-01T15:13:02;1.77;;;1.50;;
23129;SDS011;11734;51.046;13.778;2022-08-01T15:15:32;3.73;;;2.33;;
23129;SDS011;11734;51.046;13.778;2022-08-01T15:17:59;5.17;;;4.73;;
23129;SDS011;11734;51.046;13.778;2022-08-01T15:20:26;1.73;;;1.30;;
23129;SDS011;11734;51.046;13.778;2022-08-01T15:22:54;1.60;;;1.30;;
23129;SDS011;11734;51.046;13.778;2022-08-01T15:25:21;2.00;;;1.33;;
23129;SDS011;11734;51.046;13.778;2022-08-01T15:27:48;1.50;;;1.40;;
23129;SDS011;11734;51.046;13.778;2022-08-01T15:30:16;1.80;;;1.20;;
23129;SDS011;11734;51.046;13.778;2022-08-01T15:32:52;1.80;;;1.30;;
23129;SDS011;11734;51.046;13.778;2022-08-01T15:35:19;1.63;;;1.20;;
23129;SDS011;11734;51.046;13.778;2022-08-01T15:37:47;2.10;;;1.37;;